Time;durP1;ratioP1;P1;durP2;ratioP2;P2;SDS_P1;SDS_P2;PMS_P1;PMS_P2;Temp;Humidity;BMP_temperature;BMP_pressure;BME280_temperature;BME280_humidity;BME280_pressure;Samples;Min_cycle;Max_cycle;Signal;HPM_P1;HPM_P2
2022/10/12 00:02:15;;;;;;;8.65;4.25;;;;;;;;;;5053466;28;20463;-74
2022/10/12 00:04:41;;;;;;;8.07;4.03;;;;;;;;;;5072967;28;20494;-74
2022/10/12 00:07:07;;;;;;;8.45;4.97;;;;;;;;;;5070664;28;20445;-79
2022/10/12 00:09:33;;;;;;;8.73;4.97;;;;;;;;;;5106447;28;20898;-79
2022/10/12 00:12:00;;;;;;;8.93;5.07;;;;;;;;;;5071426;28;20965;-74
2022/10/12 00:14:26;;;;;;;10.05;5.20;;;;;;;;;;5070305;28;20545;-74
2022/10/12 00:16:52;;;;;;;11.25;5.35;;;;;;;;;;5072088;28;20775;-75
2022/10/12 00:19:18;;;;;;;10.02;5.18;;;;;;;;;;5072522;28;20418;-78
2022/10/12 00:21:44;;;;;;;9.50;5.65;;;;;;;;;;5072383;28;20415;-79
2022/10/12 00:24:10;;;;;;;10.27;5.57;;;;;;;;;;5104770;28;20423;-79
2022/10/12 00:26:36;;;;;;;11.27;5.60;;;;;;;;;;5039176;28;20419;-79
2022/10/12 00:29:03;;;;;;;10.63;5.15;;;7.60;99.90;;;;;;5072386;28;20812;-79
2022/10/12 00:31:29;;;;;;;13.43;5.40;;;;;;;;;;5073307;28;20416;-79
2022/10/12 00:33:58;;;;;;;11.80;5.27;;;;;;;;;;5072558;28;20430;-79
2022/10/12 00:36:27;;;;;;;9.73;5.20;;;7.40;99.90;;;;;;5073488;28;20419;-79
2022/10/12 00:38:54;;;;;;;11.68;5.03;;;;;;;;;;5073289;28;20946;-80
2022/10/12 00:41:24;;;;;;;13.57;5.25;;;7.40;99.90;;;;;;5085671;28;20441;-79
2022/10/12 00:43:51;;;;;;;10.13;5.37;;;;;;;;;;5054261;28;20477;-80
2022/10/12 00:46:25;;;;;;;9.40;4.88;;;;;;;;;;5049280;28;20459;-80
2022/10/12 00:48:56;;;;;;;9.13;5.10;;;7.40;99.90;;;;;;5054713;28;20460;-80
2022/10/12 00:51:22;;;;;;;13.15;5.45;;;;;;;;;;5071784;28;20423;-75
2022/10/12 00:53:57;;;;;;;9.07;4.93;;;;;;;;;;5071823;28;20506;-75
2022/10/12 00:56:25;;;;;;;7.95;4.68;;;;;;;;;;5054735;28;20459;-75
2022/10/12 00:58:53;;;;;;;8.63;4.78;;;;;;;;;;5070773;28;20424;-75
2022/10/12 01:01:20;;;;;;;10.30;5.10;;;;;;;;;;5073267;28;20407;-75
2022/10/12 01:03:46;;;;;;;10.63;5.60;;;;;;;;;;5068124;28;20791;-75
2022/10/12 01:06:13;;;;;;;13.00;5.85;;;7.10;99.90;;;;;;5105178;28;20423;-79
2022/10/12 01:08:39;;;;;;;11.00;4.95;;;;;;;;;;5082611;28;20428;-78
2022/10/12 01:11:05;;;;;;;12.13;5.37;;;;;;;;;;5075737;28;20467;-79
2022/10/12 01:13:31;;;;;;;10.95;4.97;;;;;;;;;;5073720;28;20435;-79
2022/10/12 01:15:57;;;;;;;13.95;5.57;;;;;;;;;;5072122;28;20415;-78
2022/10/12 01:18:39;;;;;;;13.32;5.53;;;7.00;99.90;;;;;;5052313;28;20420;-78
2022/10/12 01:21:11;;;;;;;10.23;5.25;;;;;;;;;;5070149;28;20423;-78
2022/10/12 01:23:40;;;;;;;12.85;5.22;;;;;;;;;;5071646;28;20432;-74
2022/10/12 01:26:18;;;;;;;12.00;5.13;;;;;;;;;;5071462;28;20398;-79
2022/10/12 01:28:47;;;;;;;10.70;5.30;;;;;;;;;;5069251;28;20426;-78
2022/10/12 01:31:22;;;;;;;10.20;4.95;;;7.00;99.90;;;;;;5069633;28;20426;-79
2022/10/12 01:33:56;;;;;;;11.32;4.88;;;7.00;99.90;;;;;;5066452;28;20500;-79
2022/10/12 01:36:27;;;;;;;8.95;4.40;;;;;;;;;;5103650;28;21231;-79
2022/10/12 01:39:15;;;;;;;10.10;4.95;;;7.50;99.90;;;;;;5071132;28;20817;-80
2022/10/12 01:41:47;;;;;;;10.07;5.00;;;;;;;;;;5086380;28;20422;-75
2022/10/12 01:44:20;;;;;;;12.70;5.10;;;6.90;99.90;;;;;;5069563;28;20424;-74
2022/10/12 01:46:46;;;;;;;11.00;5.30;;;;;;;;;;5070584;28;20982;-79
2022/10/12 01:49:14;;;;;;;13.65;5.38;;;;;;;;;;5103557;28;20427;-79
2022/10/12 01:51:55;;;;;;;8.60;4.72;;;;;;;;;;5077859;28;20428;-79
2022/10/12 01:54:51;;;;;;;11.30;5.10;;;;;;;;;;5054918;28;20768;-79
2022/10/12 01:57:26;;;;;;;12.88;5.00;;;;;;;;;;5038541;28;20923;-74
2022/10/12 02:00:06;;;;;;;14.38;4.85;;;;;;;;;;5070908;28;20422;-78
2022/10/12 02:02:38;;;;;;;8.90;4.72;;;;;;;;;;5051774;28;20439;-79
2022/10/12 02:05:26;;;;;;;10.70;4.95;;;7.10;99.90;;;;;;5070814;28;20441;-78
2022/10/12 02:07:56;;;;;;;11.23;4.88;;;7.00;99.90;;;;;;5069053;28;20416;-74
2022/10/12 02:10:26;;;;;;;15.27;5.03;;;;;;;;;;5069950;28;20419;-75
2022/10/12 02:12:55;;;;;;;17.42;5.30;;;7.20;99.90;;;;;;5071791;28;20423;-74
2022/10/12 02:15:22;;;;;;;10.93;4.73;;;;;;;;;;5071056;28;20410;-78
2022/10/12 02:17:51;;;;;;;11.38;4.60;;;7.20;99.90;;;;;;5068911;28;20440;-74
2022/10/12 02:20:20;;;;;;;10.93;5.00;;;7.00;99.90;;;;;;5071877;28;20516;-74
2022/10/12 02:22:49;;;;;;;15.00;4.82;;;7.00;99.90;;;;;;5069675;28;20772;-80
2022/10/12 02:25:17;;;;;;;12.52;4.60;;;;;;;;;;5071803;28;20524;-80
2022/10/12 02:27:46;;;;;;;10.98;4.90;;;;;;;;;;5070460;28;20419;-81
2022/10/12 02:30:12;;;;;;;12.48;5.30;;;;;;;;;;5051746;28;20393;-80
2022/10/12 02:32:48;;;;;;;17.95;4.78;;;7.20;99.90;;;;;;5039511;28;20423;-81
2022/10/12 02:35:24;;;;;;;11.73;4.82;;;;;;;;;;5071402;28;20408;-80
2022/10/12 02:38:01;;;;;;;13.40;4.80;;;;;;;;;;5069437;28;20426;-80
2022/10/12 02:40:44;;;;;;;12.38;5.07;;;7.10;99.90;;;;;;5068739;28;20430;-81
2022/10/12 02:43:24;;;;;;;14.65;5.20;;;7.20;99.90;;;;;;5073454;28;20451;-80
2022/10/12 02:45:51;;;;;;;15.88;5.00;;;;;;;;;;5107634;28;20433;-80
2022/10/12 02:48:22;;;;;;;11.02;4.85;;;7.00;99.90;;;;;;5073234;28;20424;-81
2022/10/12 02:50:50;;;;;;;15.90;4.90;;;7.10;99.90;;;;;;5106951;28;20422;-80
2022/10/12 02:53:16;;;;;;;11.43;4.80;;;;;;;;;;5073441;28;20908;-80
2022/10/12 02:55:47;;;;;;;16.42;4.85;;;;;;;;;;5072806;28;20417;-81
2022/10/12 02:58:13;;;;;;;11.85;4.60;;;;;;;;;;5091716;28;20940;-80
2022/10/12 03:00:39;;;;;;;9.82;4.28;;;;;;;;;;5073687;28;20827;-80
2022/10/12 03:03:05;;;;;;;16.35;5.03;;;;;;;;;;5087563;28;20490;-80
2022/10/12 03:05:31;;;;;;;15.63;4.90;;;;;;;;;;5072771;28;20485;-75
2022/10/12 03:07:57;;;;;;;14.13;5.50;;;;;;;;;;5071499;28;20422;-80
2022/10/12 03:10:24;;;;;;;24.20;5.88;;;;;;;;;;5071511;28;20426;-80
2022/10/12 03:12:50;;;;;;;13.82;5.88;;;;;;;;;;5073264;28;20926;-80
2022/10/12 03:15:16;;;;;;;15.63;5.47;;;;;;;;;;5091345;28;20491;-80
2022/10/12 03:17:42;;;;;;;12.20;4.50;;;;;;;;;;5073229;28;20425;-80
2022/10/12 03:20:08;;;;;;;12.45;4.00;;;;;;;;;;5071772;28;20506;-80
2022/10/12 03:22:34;;;;;;;9.88;4.10;;;;;;;;;;5090371;28;20460;-79
2022/10/12 03:25:00;;;;;;;10.68;4.60;;;;;;;;;;5086566;28;20424;-79
2022/10/12 03:27:26;;;;;;;10.65;4.35;;;;;;;;;;5073480;28;20402;-80
2022/10/12 03:29:52;;;;;;;12.32;4.15;;;;;;;;;;5089633;28;20444;-80
2022/10/12 03:32:18;;;;;;;8.25;3.80;;;;;;;;;;5094031;28;20540;-80
2022/10/12 03:34:44;;;;;;;11.10;5.38;;;;;;;;;;5075899;28;20424;-80
2022/10/12 03:37:10;;;;;;;12.73;4.50;;;;;;;;;;5060563;28;20455;-75
2022/10/12 03:39:36;;;;;;;10.65;4.40;;;;;;;;;;5071597;28;20429;-75
2022/10/12 03:42:02;;;;;;;11.80;4.93;;;;;;;;;;5076917;28;20406;-75
2022/10/12 03:44:29;;;;;;;9.67;4.57;;;;;;;;;;5075506;28;20425;-75
2022/10/12 03:46:55;;;;;;;13.35;4.80;;;;;;;;;;5094293;28;20398;-75
2022/10/12 03:49:21;;;;;;;14.10;5.22;;;;;;;;;;5074835;28;20420;-73
2022/10/12 03:51:47;;;;;;;10.30;4.70;;;;;;;;;;5096525;28;20813;-74
2022/10/12 03:54:13;;;;;;;11.15;5.43;;;;;;;;;;5092060;28;20524;-75
2022/10/12 03:56:39;;;;;;;9.93;4.78;;;;;;;;;;5076419;28;20969;-74
2022/10/12 03:59:05;;;;;;;10.95;4.88;;;;;;;;;;5076165;28;20432;-75
2022/10/12 04:01:31;;;;;;;12.15;5.45;;;;;;;;;;5076610;28;20402;-75
2022/10/12 04:03:57;;;;;;;9.98;5.07;;;;;;;;;;5074721;28;20425;-75
2022/10/12 04:06:23;;;;;;;10.18;4.80;;;;;;;;;;5075108;28;20518;-74
2022/10/12 04:08:49;;;;;;;9.57;4.80;;;;;;;;;;5073886;28;20512;-74
2022/10/12 04:11:15;;;;;;;12.57;4.90;;;;;;;;;;5076914;28;20409;-74
2022/10/12 04:13:42;;;;;;;8.57;4.82;;;;;;;;;;5076625;28;20421;-74
2022/10/12 04:16:08;;;;;;;12.93;5.07;;;6.70;99.90;;;;;;5092383;28;20766;-74
2022/10/12 04:18:35;;;;;;;13.80;5.78;;;;;;;;;;5092933;28;20429;-73
2022/10/12 04:21:01;;;;;;;13.68;5.55;;;;;;;;;;5076933;28;20394;-73
2022/10/12 04:23:27;;;;;;;12.90;5.87;;;;;;;;;;5074874;28;21017;-73
2022/10/12 04:25:53;;;;;;;15.38;6.30;;;;;;;;;;5078404;28;20996;-74
2022/10/12 04:28:20;;;;;;;12.10;5.50;;;;;;;;;;5075439;28;20477;-74
2022/10/12 04:30:46;;;;;;;12.52;5.68;;;;;;;;;;5076242;28;20394;-75
2022/10/12 04:33:12;;;;;;;12.48;6.45;;;;;;;;;;5072982;28;20964;-75
2022/10/12 04:35:38;;;;;;;17.02;7.43;;;;;;;;;;5092625;28;20490;-75
2022/10/12 04:38:05;;;;;;;14.35;6.47;;;6.40;99.90;;;;;;5074823;28;20904;-75
2022/10/12 04:40:31;;;;;;;12.85;6.03;;;;;;;;;;5056759;28;20452;-75
2022/10/12 04:42:57;;;;;;;21.13;7.90;;;;;;;;;;5057639;28;20422;-74
2022/10/12 04:45:23;;;;;;;18.27;7.43;;;;;;;;;;5073366;28;20486;-74
2022/10/12 04:47:51;;;;;;;15.43;6.65;;;;;;;;;;5074728;28;20930;-74
2022/10/12 04:50:18;;;;;;;20.38;8.27;;;;;;;;;;5074128;28;20414;-74
2022/10/12 04:52:44;;;;;;;22.23;8.23;;;;;;;;;;5074901;28;20764;-74
2022/10/12 04:55:10;;;;;;;18.60;8.55;;;;;;;;;;5092468;28;20924;-74
2022/10/12 04:57:42;;;;;;;22.85;9.57;;;;;;;;;;5074456;28;20432;-74
2022/10/12 05:00:09;;;;;;;24.77;10.85;;;;;;;;;;5058365;28;20421;-74
2022/10/12 05:02:35;;;;;;;27.38;11.90;;;;;;;;;;5070600;28;20494;-74
2022/10/12 05:05:01;;;;;;;26.02;12.48;;;;;;;;;;5036999;28;21256;-74
2022/10/12 05:07:27;;;;;;;23.38;11.45;;;;;;;;;;5085519;28;20417;-75
2022/10/12 05:09:53;;;;;;;25.00;11.32;;;;;;;;;;5074477;28;20418;-73
2022/10/12 05:12:19;;;;;;;29.52;12.82;;;;;;;;;;5108760;28;20421;-75
2022/10/12 05:14:45;;;;;;;25.38;13.10;;;;;;;;;;5057272;28;20418;-74
2022/10/12 05:17:11;;;;;;;22.00;12.43;;;;;;;;;;5055370;28;20417;-74
2022/10/12 05:19:37;;;;;;;25.23;13.80;;;;;;;;;;5073511;28;20490;-75
2022/10/12 05:22:03;;;;;;;24.05;13.45;;;;;;;;;;5069975;28;20422;-74
2022/10/12 05:24:29;;;;;;;72.78;18.88;;;;;;;;;;5072393;28;20491;-79
2022/10/12 05:26:56;;;;;;;25.67;13.83;;;;;;;;;;5074142;28;20476;-78
2022/10/12 05:29:22;;;;;;;29.38;13.50;;;;;;;;;;5088975;28;20808;-78
2022/10/12 05:31:48;;;;;;;37.28;15.52;;;;;;;;;;5072276;28;20488;-78
2022/10/12 05:34:14;;;;;;;22.87;14.33;;;;;;;;;;5089475;28;20425;-79
2022/10/12 05:36:40;;;;;;;25.60;13.88;;;;;;;;;;5093212;28;21104;-79
2022/10/12 05:39:06;;;;;;;32.20;15.98;;;;;;;;;;5071516;28;20422;-79
2022/10/12 05:41:32;;;;;;;24.17;14.60;;;;;;;;;;5096424;28;20406;-78
2022/10/12 05:43:58;;;;;;;23.02;12.93;;;;;;;;;;5068415;28;20422;-79
2022/10/12 05:46:24;;;;;;;27.58;13.35;;;;;;;;;;5072845;28;20422;-79
2022/10/12 05:48:50;;;;;;;23.08;12.90;;;;;;;;;;5054290;28;20716;-79
2022/10/12 05:51:16;;;;;;;27.83;13.50;;;;;;;;;;5071738;28;20467;-81
2022/10/12 05:53:42;;;;;;;25.55;14.52;;;;;;;;;;5092227;28;20961;-79
2022/10/12 05:56:08;;;;;;;23.27;13.18;;;;;;;;;;5065622;28;20427;-78
2022/10/12 05:58:34;;;;;;;21.75;12.35;;;;;;;;;;5063200;28;20915;-78
2022/10/12 06:01:04;;;;;;;25.20;13.10;;;;;;;;;;5091534;28;20425;-79
2022/10/12 06:03:30;;;;;;;24.23;12.48;;;;;;;;;;5073904;28;20426;-79
2022/10/12 06:05:56;;;;;;;23.30;13.90;;;;;;;;;;5074837;28;20397;-79
2022/10/12 06:08:22;;;;;;;80.23;19.30;;;;;;;;;;5074495;28;20454;-78
2022/10/12 06:10:50;;;;;;;21.00;12.73;;;;;;;;;;5045742;28;20418;-78
2022/10/12 06:13:18;;;;;;;21.60;13.27;;;;;;;;;;5094132;28;20451;-77
2022/10/12 06:15:45;;;;;;;25.55;12.93;;;;;;;;;;5087625;28;20471;-78
2022/10/12 06:18:11;;;;;;;27.58;14.05;;;;;;;;;;5054071;28;20873;-78
2022/10/12 06:20:37;;;;;;;26.70;13.63;;;;;;;;;;5072340;28;20435;-78
2022/10/12 06:23:03;;;;;;;22.83;13.45;;;;;;;;;;5078905;28;20504;-78
2022/10/12 06:25:29;;;;;;;22.95;12.98;;;;;;;;;;5069552;28;20422;-77
2022/10/12 06:27:55;;;;;;;30.73;15.53;;;;;;;;;;5053224;28;20547;-77
2022/10/12 06:30:21;;;;;;;27.13;15.63;;;;;;;;;;5073136;28;20497;-78
2022/10/12 06:32:47;;;;;;;26.52;13.45;;;;;;;;;;5056079;28;20434;-78
2022/10/12 06:35:13;;;;;;;22.13;12.93;;;;;;;;;;5073024;28;20426;-78
2022/10/12 06:37:39;;;;;;;24.55;12.45;;;;;;;;;;5059621;28;20421;-78
2022/10/12 06:40:06;;;;;;;18.77;11.55;;;;;;;;;;5105581;28;20444;-77
2022/10/12 06:42:32;;;;;;;19.73;11.73;;;;;;;;;;5073629;28;20496;-78
2022/10/12 06:44:58;;;;;;;23.48;11.77;;;;;;;;;;5068147;28;20425;-78
2022/10/12 06:47:24;;;;;;;23.95;12.00;;;;;;;;;;5066819;28;20531;-78
2022/10/12 06:49:50;;;;;;;21.30;12.00;;;;;;;;;;5067014;28;20419;-79
2022/10/12 06:52:16;;;;;;;21.77;13.00;;;;;;;;;;5070818;28;20486;-79
2022/10/12 06:54:42;;;;;;;23.40;11.88;;;;;;;;;;5103090;28;20414;-78
2022/10/12 06:57:08;;;;;;;21.80;11.55;;;;;;;;;;5070983;28;20487;-79
2022/10/12 06:59:34;;;;;;;21.45;10.88;;;;;;;;;;5054890;28;20499;-79
2022/10/12 07:02:00;;;;;;;18.63;10.60;;;;;;;;;;5062580;28;20924;-78
2022/10/12 07:04:26;;;;;;;20.33;10.70;;;;;;;;;;5065103;28;20823;-78
2022/10/12 07:06:52;;;;;;;18.73;10.15;;;;;;;;;;5066677;28;20425;-79
2022/10/12 07:09:18;;;;;;;20.52;9.75;;;;;;;;;;5068693;28;20761;-79
2022/10/12 07:11:44;;;;;;;21.35;9.90;;;;;;;;;;5102533;28;21768;-79
2022/10/12 07:14:10;;;;;;;19.98;10.10;;;;;;;;;;5056368;28;20437;-80
2022/10/12 07:16:37;;;;;;;21.80;10.10;;;;;;;;;;5070142;28;20504;-79
2022/10/12 07:19:03;;;;;;;15.75;9.10;;;;;;;;;;5080984;28;20424;-80
2022/10/12 07:21:29;;;;;;;20.33;9.77;;;;;;;;;;5077632;28;20429;-80
2022/10/12 07:23:55;;;;;;;15.98;9.05;;;;;;;;;;5089331;28;20429;-80
2022/10/12 07:26:21;;;;;;;16.63;9.00;;;;;;;;;;5091066;28;20887;-80
2022/10/12 07:28:47;;;;;;;17.38;8.55;;;;;;;;;;5089816;28;20416;-78
2022/10/12 07:31:13;;;;;;;19.90;8.30;;;;;;;;;;5075997;28;20479;-79
2022/10/12 07:33:39;;;;;;;15.17;8.27;;;;;;;;;;5060672;28;20527;-79
2022/10/12 07:36:06;;;;;;;15.15;7.45;;;;;;;;;;5075356;28;20428;-79
2022/10/12 07:38:32;;;;;;;14.35;7.25;;;;;;;;;;5076145;28;20490;-79
2022/10/12 07:41:02;;;;;;;12.77;7.00;;;;;;;;;;5075525;28;20424;-79
2022/10/12 07:43:29;;;;;;;13.30;7.80;;;8.90;99.90;;;;;;5075552;28;20430;-80
2022/10/12 07:45:55;;;;;;;13.50;7.60;;;;;;;;;;5090255;28;20433;-80
2022/10/12 07:48:21;;;;;;;16.48;7.90;;;;;;;;;;5076031;28;20986;-80
2022/10/12 07:50:47;;;;;;;16.75;8.25;;;;;;;;;;5077927;28;20424;-79
2022/10/12 07:53:14;;;;;;;18.65;8.48;;;;;;;;;;5073237;28;20434;-80
2022/10/12 07:55:40;;;;;;;13.82;7.93;;;;;;;;;;5106167;28;20831;-79
2022/10/12 07:58:06;;;;;;;17.58;8.25;;;;;;;;;;5090212;28;20408;-79
2022/10/12 08:00:32;;;;;;;13.13;8.32;;;;;;;;;;5090822;28;20448;-79
2022/10/12 08:02:58;;;;;;;18.40;9.32;;;;;;;;;;5091115;28;20944;-79
2022/10/12 08:05:25;;;;;;;17.25;9.38;;;9.00;99.90;;;;;;5106469;28;20962;-80
2022/10/12 08:07:52;;;;;;;19.50;10.27;;;;;;;;;;5092973;28;20510;-79
2022/10/12 08:10:18;;;;;;;19.05;10.10;;;;;;;;;;5077648;28;20417;-79
2022/10/12 08:12:45;;;;;;;23.40;11.90;;;8.90;99.90;;;;;;5067206;28;20428;-80
2022/10/12 08:15:12;;;;;;;22.77;13.32;;;;;;;;;;5072432;28;20449;-79
2022/10/12 08:17:38;;;;;;;23.70;12.18;;;;;;;;;;5055033;28;20430;-80
2022/10/12 08:20:04;;;;;;;24.08;12.32;;;;;;;;;;5057150;28;20464;-79
2022/10/12 08:22:30;;;;;;;21.40;12.05;;;;;;;;;;5075114;28;20475;-79
2022/10/12 08:24:56;;;;;;;22.85;12.45;;;;;;;;;;5075774;28;20415;-80
2022/10/12 08:27:22;;;;;;;28.20;12.88;;;;;;;;;;5063909;28;20422;-80
2022/10/12 08:29:48;;;;;;;21.35;10.73;;;;;;;;;;5061500;28;20414;-79
2022/10/12 08:32:15;;;;;;;20.75;10.80;;;;;;;;;;5047595;28;20435;-80
2022/10/12 08:34:41;;;;;;;19.77;10.82;;;;;;;;;;5052648;28;20415;-79
2022/10/12 08:37:07;;;;;;;18.65;11.20;;;;;;;;;;5078392;28;20460;-80
2022/10/12 08:39:33;;;;;;;20.75;11.05;;;;;;;;;;5091072;28;20409;-81
2022/10/12 08:42:27;;;;;;;21.65;11.70;;;;;;;;;;5072980;28;20427;-80
2022/10/12 08:44:59;;;;;;;19.83;11.75;;;;;;;;;;5073807;28;20434;-80
2022/10/12 08:47:37;;;;;;;19.43;10.70;;;;;;;;;;5075833;28;20509;-80
2022/10/12 08:50:05;;;;;;;18.65;10.70;;;10.10;99.90;;;;;;5090011;28;20441;-81
2022/10/12 08:52:34;;;;;;;21.10;10.48;;;;;;;;;;5073737;28;20982;-80
2022/10/12 08:55:05;;;;;;;16.80;9.63;;;;;;;;;;5108152;28;20501;-79
2022/10/12 08:57:31;;;;;;;21.40;10.25;;;;;;;;;;5075897;28;20398;-79
2022/10/12 08:59:57;;;;;;;17.40;9.40;;;10.90;99.90;;;;;;5092845;28;20486;-80
2022/10/12 09:02:42;;;;;;;20.05;9.48;;;;;;;;;;5057898;28;20419;-80
2022/10/12 09:05:13;;;;;;;18.48;9.07;;;11.20;99.90;;;;;;5074440;28;20422;-81
2022/10/12 09:07:44;;;;;;;20.60;9.13;;;;;;;;;;5074429;28;20593;-79
2022/10/12 09:10:13;;;;;;;17.80;8.93;;;;;;;;;;5071725;28;20508;-80
2022/10/12 09:12:57;;;;;;;24.08;9.68;;;12.20;99.90;;;;;;5108758;28;20493;-81
2022/10/12 09:15:50;;;;;;;17.80;8.75;;;12.30;99.90;;;;;;5074140;28;20514;-80
2022/10/12 09:18:30;;;;;;;17.33;8.10;;;12.10;99.90;;;;;;5065437;28;20938;-79
2022/10/12 09:20:57;;;;;;;15.93;8.03;;;;;;;;;;5074823;28;20752;-78
2022/10/12 09:23:33;;;;;;;13.97;7.90;;;12.60;99.90;;;;;;5057347;28;20765;-79
2022/10/12 09:26:12;;;;;;;16.75;7.90;;;13.00;99.90;;;;;;5093026;28;20827;-79
2022/10/12 09:28:43;;;;;;;14.07;7.47;;;13.00;99.90;;;;;;5077095;28;20418;-79
2022/10/12 09:31:16;;;;;;;18.52;7.97;;;;;;;;;;5073376;28;20467;-79
2022/10/12 09:34:09;;;;;;;16.40;7.80;;;;;;;;;;5071913;28;20811;-79
2022/10/12 09:36:37;;;;;;;14.88;7.05;;;12.60;99.90;;;;;;5067638;28;20435;-81
2022/10/12 09:39:10;;;;;;;14.43;7.07;;;12.70;99.90;;;;;;5091424;28;20420;-80
2022/10/12 09:41:42;;;;;;;15.52;7.15;;;13.20;99.90;;;;;;5069341;28;20432;-80
2022/10/12 09:44:14;;;;;;;19.17;7.22;;;;;;;;;;5071703;28;20773;-80
2022/10/12 09:46:40;;;;;;;13.67;6.57;;;;;;;;;;5062949;28;20996;-80
2022/10/12 09:49:06;;;;;;;17.65;6.95;;;;;;;;;;5071606;28;20803;-80
2022/10/12 09:51:32;;;;;;;16.83;6.82;;;;;;;;;;5065435;28;20492;-81
2022/10/12 09:54:02;;;;;;;16.02;6.30;;;;;;;;;;5071475;28;20420;-80
2022/10/12 09:56:50;;;;;;;14.60;6.25;;;13.90;99.90;;;;;;5107662;28;20509;-80
2022/10/12 09:59:34;;;;;;;11.13;5.50;;;;;;;;;;5075259;28;22070;-81
2022/10/12 10:02:10;;;;;;;12.20;6.10;;;;;;;;;;5077381;28;20475;-79
2022/10/12 10:04:36;;;;;;;11.52;4.75;;;;;;;;;;5089204;28;22301;-80
2022/10/12 10:07:17;;;;;;;13.03;4.80;;;14.00;99.90;;;;;;5053101;28;20606;-80
2022/10/12 10:09:43;;;;;;;11.85;4.78;;;;;;;;;;5056098;28;20414;-79
2022/10/12 10:12:12;;;;;;;12.80;5.00;;;14.60;99.90;;;;;;5087204;28;20893;-80
2022/10/12 10:14:41;;;;;;;12.65;4.82;;;;;;;;;;5069409;28;20422;-80
2022/10/12 10:17:07;;;;;;;11.63;4.90;;;14.80;99.90;;;;;;5088142;28;20492;-80
2022/10/12 10:19:33;;;;;;;13.23;4.75;;;;;;;;;;5068789;28;20842;-79
2022/10/12 10:22:05;;;;;;;13.93;5.22;;;14.50;99.90;;;;;;5091024;28;20480;-79
2022/10/12 10:24:32;;;;;;;12.13;4.63;;;;;;;;;;5070561;28;20505;-79
2022/10/12 10:27:04;;;;;;;10.38;4.05;;;14.70;99.90;;;;;;5072856;28;20498;-79
2022/10/12 10:29:41;;;;;;;11.65;4.32;;;14.70;99.90;;;;;;5072185;28;20488;-80
2022/10/12 10:32:27;;;;;;;10.95;3.60;;;;;;;;;;5073764;28;20481;-78
2022/10/12 10:35:12;;;;;;;11.90;3.90;;;;;;;;;;5091345;28;20909;-79
2022/10/12 10:37:57;;;;;;;11.57;3.78;;;15.20;99.90;;;;;;5091994;28;20907;-79
2022/10/12 10:40:41;;;;;;;12.23;3.65;;;15.00;99.90;;;;;;5079187;28;20472;-80
2022/10/12 10:43:27;;;;;;;10.60;4.30;;;;;;;;;;5091699;28;20425;-80
2022/10/12 10:46:14;;;;;;;9.40;3.90;;;15.20;99.90;;;;;;5089911;28;20481;-80
2022/10/12 10:49:05;;;;;;;12.10;3.78;;;15.40;99.90;;;;;;5091631;28;20405;-80
2022/10/12 10:52:00;;;;;;;10.88;3.83;;;15.50;99.90;;;;;;5072068;28;20910;-80
2022/10/12 10:54:29;;;;;;;9.60;3.20;;;15.20;99.90;;;;;;5053141;28;20415;-80
2022/10/12 10:57:07;;;;;;;13.57;3.58;;;15.20;99.90;;;;;;5088219;28;20493;-79
2022/10/12 10:59:42;;;;;;;10.55;3.40;;;;;;;;;;5100394;28;20534;-78
2022/10/12 11:02:24;;;;;;;17.27;4.00;;;15.40;99.90;;;;;;5076267;28;20458;-81
2022/10/12 11:05:05;;;;;;;10.38;3.30;;;;;;;;;;5073417;28;20410;-80
2022/10/12 11:07:49;;;;;;;11.80;3.58;;;15.70;99.90;;;;;;5088125;28;20491;-79
2022/10/12 11:10:20;;;;;;;15.18;3.67;;;15.60;99.90;;;;;;5104673;28;20417;-79
2022/10/12 11:12:48;;;;;;;14.50;4.38;;;;;;;;;;5086822;28;20407;-79
2022/10/12 11:15:17;;;;;;;12.90;3.58;;;16.20;99.90;;;;;;5087877;28;20498;-78
2022/10/12 11:17:49;;;;;;;10.88;3.60;;;15.80;99.90;;;;;;5047732;28;20818;-79
2022/10/12 11:20:38;;;;;;;13.82;3.90;;;15.70;99.90;;;;;;5064584;28;20993;-77
2022/10/12 11:23:19;;;;;;;10.48;3.10;;;15.50;99.90;;;;;;5051464;28;20503;-78
2022/10/12 11:25:52;;;;;;;12.38;3.47;;;;;;;;;;5070075;28;20429;-79
2022/10/12 11:28:18;;;;;;;10.68;3.00;;;;;;;;;;5068956;28;20434;-81
2022/10/12 11:30:52;;;;;;;13.27;3.10;;;16.00;99.90;;;;;;5072970;28;20398;-81
2022/10/12 11:33:40;;;;;;;12.18;3.40;;;15.90;99.90;;;;;;5102375;28;21002;-81
2022/10/12 11:36:12;;;;;;;13.07;3.50;;;15.80;99.90;;;;;;5096340;28;20927;-80
2022/10/12 11:39:01;;;;;;;10.65;3.30;;;16.00;99.90;;;;;;5106735;28;21037;-78
2022/10/12 11:41:46;;;;;;;12.88;2.92;;;16.40;99.90;;;;;;5069005;28;20422;-80
2022/10/12 11:44:39;;;;;;;9.03;3.03;;;16.50;99.90;;;;;;5071868;28;20504;-81
2022/10/12 11:47:28;;;;;;;9.70;3.20;;;16.80;99.90;;;;;;5068894;28;20902;-81
2022/10/12 11:50:05;;;;;;;11.57;3.10;;;16.60;99.90;;;;;;5069014;28;20422;-80
2022/10/12 11:52:40;;;;;;;8.45;2.90;;;16.70;99.90;;;;;;5064467;28;20423;-80
2022/10/12 11:55:32;;;;;;;7.80;2.80;;;17.10;99.90;;;;;;5090580;28;20413;-82
2022/10/12 11:58:03;;;;;;;11.50;3.17;;;16.90;99.90;;;;;;5070940;28;20974;-81
2022/10/12 12:00:49;;;;;;;11.70;2.90;;;16.90;99.90;;;;;;5076245;28;20500;-82
2022/10/12 12:03:20;;;;;;;12.15;2.83;;;17.40;99.90;;;;;;5069793;28;20931;-80
2022/10/12 12:05:46;;;;;;;10.90;2.30;;;17.50;99.90;;;;;;5104140;28;20419;-80
2022/10/12 12:08:41;;;;;;;8.60;2.60;;;17.90;99.90;;;;;;5102191;28;20418;-81
2022/10/12 12:11:27;;;;;;;8.85;2.47;;;17.30;99.90;;;;;;5053696;28;20502;-79
2022/10/12 12:14:24;;;;;;;8.98;2.83;;;17.20;99.90;;;;;;5073363;28;20433;-80
2022/10/12 12:17:14;;;;;;;8.23;2.50;;;17.00;99.90;;;;;;5073807;28;20459;-80
2022/10/12 12:19:41;;;;;;;10.95;2.88;;;16.80;99.90;;;;;;5108127;28;20428;-80
2022/10/12 12:22:28;;;;;;;10.50;2.72;;;17.00;99.90;;;;;;5071872;28;20906;-79
2022/10/12 12:25:07;;;;;;;8.80;2.60;;;17.20;99.90;;;;;;5057937;28;20460;-80
2022/10/12 12:28:07;;;;;;;7.80;2.20;;;17.50;99.90;;;;;;5068849;28;20414;-79
2022/10/12 12:30:39;;;;;;;11.87;2.67;;;17.60;99.90;;;;;;5016227;28;20511;-80
2022/10/12 12:33:19;;;;;;;11.63;2.85;;;17.60;99.90;;;;;;5094902;28;20741;-81
2022/10/12 12:35:58;;;;;;;8.57;2.43;;;16.80;99.90;;;;;;5079588;28;20426;-80
2022/10/12 12:38:49;;;;;;;7.63;2.22;;;17.40;99.90;;;;;;5085492;28;20422;-80
2022/10/12 12:41:43;;;;;;;8.23;2.35;;;17.20;99.90;;;;;;5106749;28;20422;-80
2022/10/12 12:44:41;;;;;;;8.57;2.25;;;17.20;99.90;;;;;;5073350;28;20827;-80
2022/10/12 12:47:10;;;;;;;7.47;2.30;;;17.50;99.90;;;;;;5068738;28;20421;-81
2022/10/12 12:49:49;;;;;;;7.03;2.20;;;16.90;99.90;;;;;;5070662;28;20548;-79
2022/10/12 12:52:28;;;;;;;8.07;2.42;;;17.20;99.90;;;;;;5075196;28;20498;-81
2022/10/12 12:55:24;;;;;;;8.70;2.20;;;17.00;99.90;;;;;;5063505;28;20429;-80
2022/10/12 12:58:24;;;;;;;9.02;2.45;;;16.80;99.90;;;;;;5067066;28;20966;-80
2022/10/12 13:01:24;;;;;;;7.28;2.38;;;16.10;99.90;;;;;;5070237;28;20420;-80
2022/10/12 13:04:15;;;;;;;8.53;2.50;;;16.30;99.90;;;;;;5108468;28;20437;-80
2022/10/12 13:06:59;;;;;;;8.77;2.60;;;16.30;99.90;;;;;;5071868;28;20420;-80
2022/10/12 13:09:46;;;;;;;9.82;2.30;;;16.50;99.90;;;;;;5084584;28;20505;-79
2022/10/12 13:12:21;;;;;;;11.73;2.50;;;;;;;;;;5065360;28;20419;-80
2022/10/12 13:15:03;;;;;;;8.43;2.40;;;16.30;99.90;;;;;;5102980;27;20433;-81
2022/10/12 13:17:50;;;;;;;9.35;2.50;;;16.00;99.90;;;;;;5065281;28;20426;-79
2022/10/12 13:20:24;;;;;;;8.30;2.50;;;16.00;99.90;;;;;;5044094;28;20454;-80
2022/10/12 13:22:52;;;;;;;7.35;2.42;;;;;;;;;;5075090;28;20802;-80
2022/10/12 13:25:43;;;;;;;10.60;3.30;;;16.00;99.90;;;;;;5072404;28;20433;-80
2022/10/12 13:28:23;;;;;;;8.60;2.40;;;16.00;99.90;;;;;;5089890;28;20483;-79
2022/10/12 13:30:54;;;;;;;8.75;2.50;;;16.10;99.90;;;;;;5067905;28;20422;-80
2022/10/12 13:33:34;;;;;;;9.57;2.50;;;;;;;;;;5066432;28;20607;-79
2022/10/12 13:36:05;;;;;;;9.93;2.67;;;;;;;;;;5071344;28;20414;-81
2022/10/12 13:38:34;;;;;;;10.38;2.65;;;16.20;99.90;;;;;;5068679;28;20500;-79
2022/10/12 13:41:07;;;;;;;8.43;3.03;;;15.90;99.90;;;;;;5100566;27;20419;-81
2022/10/12 13:43:37;;;;;;;8.85;3.13;;;;;;;;;;5086954;28;20434;-80
2022/10/12 13:46:04;;;;;;;9.48;2.95;;;15.80;99.90;;;;;;5070565;28;20432;-80
2022/10/12 13:48:30;;;;;;;11.13;2.70;;;16.30;99.90;;;;;;5071174;28;20422;-80
2022/10/12 13:50:58;;;;;;;8.30;2.78;;;;;;;;;;5060463;28;20410;-81
2022/10/12 13:53:24;;;;;;;11.82;3.10;;;;;;;;;;5099969;28;20699;-81
2022/10/12 13:56:02;;;;;;;8.27;2.95;;;15.90;99.90;;;;;;5082855;28;20427;-82
2022/10/12 13:58:30;;;;;;;7.90;2.95;;;16.00;99.90;;;;;;5072859;28;20706;-78
2022/10/12 14:00:57;;;;;;;9.60;2.92;;;;;;;;;;5051642;28;20434;-82
2022/10/12 14:03:26;;;;;;;9.07;3.33;;;16.00;99.90;;;;;;5062218;28;20423;-81
2022/10/12 14:05:52;;;;;;;7.35;2.95;;;15.70;99.90;;;;;;5096752;28;20429;-81
2022/10/12 14:08:25;;;;;;;8.43;2.92;;;15.60;99.90;;;;;;5088334;28;20409;-81
2022/10/12 14:10:52;;;;;;;11.45;3.20;;;;;;;;;;5070083;28;20424;-79
2022/10/12 14:13:32;;;;;;;8.93;3.20;;;;;;;;;;5065271;28;20769;-78